METAR AND TAF INFORMATION
METAR FOR LBWN
ADDS - METARS form results

(1435 UTC 17 July 2019)
Data provider http://aviationweather.gov/metar/data/
 
METAR text: LBWN 171430Z 11009KT 9999 FEW045 26/13 Q1008 NOSIG
Conditions at: LBWN (VARNA , BG) observed 1430 UTC 17 July 2019
Temperature: 26.0°C (79°F)
Dewpoint: 13.0°C (55°F) [RH = 45%]
Pressure (altimeter): 29.76 inches Hg (1008.0 mb)
Winds: from the ESE (110 degrees) at 10 MPH (9 knots; 4.6 m/s)
Visibility: 6 or more miles (10+ km)
Ceiling: at least 12,000 feet AGL
Clouds: few clouds at 4500 feet AGL
Weather: no significant weather observed at this time

METAR text: LBWN 171400Z 12012KT 9999 FEW045 26/14 Q1008 NOSIG
Conditions at: LBWN (VARNA , BG) observed 1400 UTC 17 July 2019
Temperature: 26.0°C (79°F)
Dewpoint: 14.0°C (57°F) [RH = 48%]
Pressure (altimeter): 29.76 inches Hg (1008.0 mb)
Winds: from the ESE (120 degrees) at 14 MPH (12 knots; 6.2 m/s)
Visibility: 6 or more miles (10+ km)
Ceiling: at least 12,000 feet AGL
Clouds: few clouds at 4500 feet AGL
Weather: no significant weather observed at this time

Forecast for: LBWN (VARNA , BG)
Text: TAF LBWN 171100Z 1712/1812 12012KT CAVOK
Forecast period: 1200 to 1800 UTC 17 July 2019
Forecast type: FROM: standard forecast or significant change
Winds: from the ESE (120 degrees) at 14 MPH (12 knots; 6.2 m/s)
Visibility: 6 or more miles 10+ km)
Ceiling: unknown
Clouds: missing
Weather: NSW  (no significant weather)
Text: BECMG 1718/1720 VRB04KT
Forecast period: 1800 UTC 17 July 2019 to 0900 UTC 18 July 2019
Forecast type: BECOMING: Conditions expected to become as follows by 2000 UTC 17 July 2019
Winds: variable direction winds at 5 MPH (4 knots; 2.1 m/s)
Visibility: 6 or more miles 10+ km)
Ceiling: unknown
Clouds: missing
Weather: NSW  (no significant weather)
Text: BECMG 1809/1811 12012KT
Forecast period: 0900 to 1200 UTC 18 July 2019
Forecast type: BECOMING: Conditions expected to become as follows by 1100 UTC 18 July 2019
Winds: from the ESE (120 degrees) at 14 MPH (12 knots; 6.2 m/s)
Visibility: 6 or more miles 10+ km)
Ceiling: unknown
Clouds: missing
Weather: NSW  (no significant weather)

 AIRPORT MAP

 RUNWAY INFORMATION
Runway 09 Runway length 8202 ft Runway width 180 ft
Runway elevation 203 ft Runway displaced threshold 0 ft Runway heading 97
Runway 27 Runway length 8202 ft Runway width 180 ft
Runway elevation 217 ft Runway displaced threshold 0 ft Runway heading 277

 AIRPORT FREQUENCIES
Type APP Name APP Frequency 121 MHZ
Type ATIS Name ATIS Frequency 118.075 MHZ
Type TWR Name TWR Frequency 119.5 MHZ

 AIRPORT NEAR NAVIGATION AIDS
Type NDB Name Devnya Frequency 350 KHZ
Type NDB Name Varna Frequency 375 KHZ
Type NDB Name Varna Frequency 335 KHZ
Type NDB Name Varna Frequency 397 KHZ
Type NDB Name Varna Frequency 526 KHZ
Type VOR-DME Name Varna Frequency 112400 KHZ



>